Stations météo

réclame
Mon MeteoGroup
Serralta di S. Vito, Italie (16364): Température de l'air & dewpoint: 08.12.2017 17:00:00 - 14.12.2017 17:00:00 (CET)Serralta di S. Vito, Italie (16364): Vitesse du vent: 08.12.2017 17:00:00 - 14.12.2017 17:00:00 (CET)Serralta di S. Vito, Italie (16364): Direction du vent: 08.12.2017 17:00:00 - 14.12.2017 17:00:00 (CET)Serralta di S. Vito, Italie (16364): Quantités de précipitations: 08.12.2017 17:00:00 - 14.12.2017 17:00:00 (CET)
Date & Time tt [°C] td [°C] ff [km/h] ff [knt] dd rr [mm]
14.12.2017 17:00:00 - - - - - -
14.12.2017 16:00:00 5,3 3,1 35 19 WSW -
14.12.2017 15:00:00 5,3 3,1 24 13 NW -
14.12.2017 14:00:00 5,1 3,1 46 25 WSW -
14.12.2017 13:00:00 4,6 2,9 37 20 SW -
14.12.2017 12:00:00 4,6 2,6 44 24 W 0,0
14.12.2017 11:00:00 4,5 2,5 37 20 WSW -
14.12.2017 10:00:00 4,5 2,5 28 15 W -
14.12.2017 09:00:00 4,6 2,9 34 18 W -
14.12.2017 08:00:00 5,1 3,1 22 12 W -
14.12.2017 07:00:00 5,1 3,4 34 18 W -
14.12.2017 06:00:00 5,0 3,0 22 12 WSW -
14.12.2017 05:00:00 5,1 3,4 22 12 WSW -
14.12.2017 04:00:00 5,2 3,5 31 17 W -
14.12.2017 03:00:00 5,6 3,9 42 23 W -
14.12.2017 02:00:00 5,5 3,8 29 16 WNW -
14.12.2017 01:00:00 6,1 4,1 28 15 WSW -
14.12.2017 00:00:00 6,8 5,1 28 15 WNW -
13.12.2017 23:00:00 6,8 4,8 31 17 W -
13.12.2017 22:00:00 7,1 5,4 21 11 WNW -
13.12.2017 21:00:00 7,0 5,3 44 24 W -
13.12.2017 20:00:00 7,6 5,5 35 19 WSW -
13.12.2017 19:00:00 8,1 6,4 28 15 WSW -
13.12.2017 18:00:00 8,7 6,6 15 8 W 0,0
13.12.2017 17:00:00 8,1 5,9 24 13 W -
13.12.2017 16:00:00 8,1 5,9 29 16 W -
13.12.2017 15:00:00 8,2 5,6 26 14 W -
13.12.2017 14:00:00 9,6 6,5 21 11 WNW -
13.12.2017 13:00:00 10,2 5,3 21 11 W -
13.12.2017 12:00:00 11,7 4,8 8 4 W 0,0
13.12.2017 11:00:00 11,2 4,3 16 9 WSW -
13.12.2017 10:00:00 10,4 3,1 22 12 W -
13.12.2017 09:00:00 10,0 3,4 15 8 W -
13.12.2017 08:00:00 8,8 2,9 18 10 WSW -
13.12.2017 07:00:00 8,7 2,8 11 6 W -
13.12.2017 06:00:00 8,8 2,9 9 5 WNW 0,0
13.12.2017 05:00:00 8,8 2,5 11 6 WNW -
13.12.2017 04:00:00 9,5 1,1 9 5 W -
13.12.2017 03:00:00 9,4 1,9 5 3 WSW -
13.12.2017 02:00:00 9,4 2,4 11 6 WSW -
13.12.2017 01:00:00 9,3 3,2 9 5 WSW -
13.12.2017 00:00:00 9,4 3,3 9 5 SSW 0,0
12.12.2017 23:00:00 8,2 3,4 11 6 SW -
12.12.2017 22:00:00 8,2 4,0 8 4 WSW -
12.12.2017 21:00:00 7,5 3,5 8 4 SW -
12.12.2017 20:00:00 8,4 4,2 0 0 N -
12.12.2017 19:00:00 8,9 5,8 0 0 N -
12.12.2017 18:00:00 8,1 5,0 4 2 SW 0,0
12.12.2017 17:00:00 8,6 4,9 8 4 SSW -
12.12.2017 16:00:00 10,2 5,9 9 5 WSW -
12.12.2017 15:00:00 11,7 6,8 0 0 N -
12.12.2017 14:00:00 12,0 6,2 8 4 W -
12.12.2017 13:00:00 12,6 6,1 0 0 N -
12.12.2017 12:00:00 14,5 6,8 13 7 WSW 0,0
12.12.2017 11:00:00 13,3 7,0 0 0 N -
12.12.2017 10:00:00 10,6 5,1 0 0 N -
12.12.2017 09:00:00 8,5 4,8 0 0 N -
12.12.2017 08:00:00 7,2 3,6 2 1 W -
12.12.2017 07:00:00 5,9 1,8 0 0 N -
12.12.2017 06:00:00 6,2 1,9 4 2 SW 0,0
12.12.2017 05:00:00 7,7 3,7 9 5 SW -
12.12.2017 04:00:00 7,5 3,9 16 9 SSE -
12.12.2017 03:00:00 7,6 3,8 9 5 S -
12.12.2017 02:00:00 7,9 3,9 8 4 S -
12.12.2017 01:00:00 8,3 3,7 26 14 S -
12.12.2017 00:00:00 8,4 3,8 15 8 S 0,0
11.12.2017 23:00:00 7,9 3,1 0 0 N -
11.12.2017 22:00:00 8,7 3,7 26 14 SSW -
11.12.2017 21:00:00 7,6 4,1 11 6 SSW -
11.12.2017 20:00:00 8,6 5,5 21 11 SSE -
11.12.2017 19:00:00 8,8 6,0 18 10 ESE -
11.12.2017 18:00:00 8,9 6,0 21 11 S 0,0
11.12.2017 17:00:00 8,5 5,4 9 5 S -
11.12.2017 16:00:00 9,6 6,1 16 9 SSE -
11.12.2017 15:00:00 10,4 6,3 11 6 S -
11.12.2017 14:00:00 10,9 6,2 11 6 WSW -
11.12.2017 13:00:00 11,8 7,1 4 2 WSW -
11.12.2017 12:00:00 11,8 7,3 11 6 S 0,0
11.12.2017 11:00:00 11,1 5,4 9 5 S -
11.12.2017 10:00:00 8,1 4,3 15 8 W -
11.12.2017 09:00:00 6,0 2,6 8 4 SSW -
11.12.2017 08:00:00 4,0 1,0 11 6 SW -
11.12.2017 07:00:00 3,0 -0,2 13 7 SSW -
11.12.2017 06:00:00 2,0 -1,3 8 4 WSW 0,0
11.12.2017 05:00:00 1,7 -1,4 13 7 WSW -
11.12.2017 04:00:00 1,9 -1,4 8 4 W -
11.12.2017 03:00:00 1,0 -1,9 4 2 SSW -
11.12.2017 02:00:00 1,1 -1,7 0 0 N -
11.12.2017 01:00:00 1,7 -0,7 9 5 S -
11.12.2017 00:00:00 1,6 -0,7 9 5 SW 0,0
10.12.2017 23:00:00 2,1 -0,2 13 7 SSW -
10.12.2017 22:00:00 2,9 0,6 16 9 WSW -
10.12.2017 21:00:00 3,1 0,8 13 7 WNW -
10.12.2017 20:00:00 3,2 0,9 15 8 WSW -
10.12.2017 19:00:00 3,1 0,8 9 5 WSW -
10.12.2017 18:00:00 2,7 0,2 9 5 WSW 0,0
10.12.2017 17:00:00 2,6 -0,2 11 6 WSW -
10.12.2017 16:00:00 3,0 0,0 8 4 W -
10.12.2017 15:00:00 3,5 0,2 22 12 W -
10.12.2017 14:00:00 4,4 1,4 13 7 WSW -
10.12.2017 13:00:00 4,0 0,8 11 6 WNW -
10.12.2017 12:00:00 3,7 0,2 13 7 W 0,0
10.12.2017 11:00:00 4,9 1,5 11 6 WNW -
10.12.2017 10:00:00 2,8 0,0 4 2 WNW -
10.12.2017 09:00:00 1,6 -1,7 9 5 W -
10.12.2017 08:00:00 1,1 -2,7 8 4 W -
10.12.2017 07:00:00 0,9 -2,9 8 4 SSW -
10.12.2017 06:00:00 1,7 -2,0 15 8 NW -
10.12.2017 05:00:00 2,0 -2,2 21 11 NNW -
10.12.2017 04:00:00 2,3 -1,7 26 14 SW -
10.12.2017 03:00:00 2,3 -0,5 39 21 W -
10.12.2017 02:00:00 1,6 -0,8 31 17 NW -
10.12.2017 01:00:00 2,2 -0,1 31 17 WNW -
10.12.2017 00:00:00 1,9 -0,4 41 22 WNW -
09.12.2017 23:00:00 2,6 0,5 42 23 NNW -
09.12.2017 22:00:00 2,3 0,2 29 16 WSW -
09.12.2017 21:00:00 2,7 0,6 37 20 W -
09.12.2017 20:00:00 2,9 0,8 31 17 W -
09.12.2017 19:00:00 3,7 1,5 34 18 W -
09.12.2017 18:00:00 4,4 2,2 24 13 WNW -
09.12.2017 17:00:00 3,6 1,4 2 1 WSW -
09.12.2017 16:00:00 5,1 2,9 0 0 N -
09.12.2017 15:00:00 5,0 2,8 24 13 WSW -
09.12.2017 14:00:00 5,2 2,9 31 17 W -
09.12.2017 13:00:00 5,7 2,8 28 15 WSW -
09.12.2017 12:00:00 7,3 3,1 31 17 WSW 0,0
09.12.2017 11:00:00 8,6 4,2 21 11 WSW -
09.12.2017 10:00:00 7,0 3,2 21 11 SW -
09.12.2017 09:00:00 5,5 2,6 26 14 SSW -
09.12.2017 08:00:00 5,0 2,0 21 11 WSW -
09.12.2017 07:00:00 4,5 1,8 34 18 W -
09.12.2017 06:00:00 3,8 1,1 11 6 WNW 0,0
09.12.2017 05:00:00 4,0 1,8 16 9 W -
09.12.2017 04:00:00 2,8 0,7 28 15 SW -
09.12.2017 03:00:00 3,3 1,2 18 10 WSW -
09.12.2017 02:00:00 4,0 1,8 21 11 SW -
09.12.2017 01:00:00 4,5 2,5 24 13 WSW -
09.12.2017 00:00:00 4,1 1,9 24 13 W 0,0
08.12.2017 23:00:00 4,7 2,5 28 15 W -
08.12.2017 22:00:00 4,7 2,5 26 14 W -
08.12.2017 21:00:00 4,7 2,5 31 17 WNW -
08.12.2017 20:00:00 4,7 2,5 24 13 WSW -
08.12.2017 19:00:00 4,5 2,3 15 8 W -
08.12.2017 18:00:00 4,7 2,4 11 6 W 0,0
08.12.2017 17:00:00 5,1 2,8 8 4 W -

tt = Température de l'air
td = dewpoint
ff = Vitesse du vent
dd = Direction du vent
rr = Quantités de précipitations

stations d'obs. à proximité